createdAt,value
2022-12-22T06:02:49.544Z,4.00
2022-12-22T06:05:16.342Z,3.15
2022-12-22T06:07:43.269Z,3.42
2022-12-22T06:10:12.649Z,3.67
2022-12-22T06:12:41.326Z,3.67
2022-12-22T06:15:10.655Z,3.75
2022-12-22T06:20:12.173Z,4.07
2022-12-22T06:22:39.212Z,3.83
2022-12-22T06:25:06.206Z,3.22
2022-12-22T06:27:33.477Z,3.25
2022-12-22T06:30:00.045Z,3.28
2022-12-22T06:32:27.337Z,3.58
2022-12-22T06:34:53.878Z,3.35
2022-12-22T06:37:20.750Z,3.88
2022-12-22T06:39:47.963Z,3.45
2022-12-22T06:42:33.310Z,3.58
2022-12-22T06:44:59.864Z,3.22
2022-12-22T06:47:26.719Z,3.60
2022-12-22T06:49:53.639Z,3.45
2022-12-22T06:52:20.159Z,3.38
2022-12-22T06:54:47.402Z,4.15
2022-12-22T06:57:14.012Z,4.22
2022-12-22T06:59:41.138Z,3.03
2022-12-22T07:02:10.917Z,3.47
2022-12-22T07:04:38.366Z,3.20
2022-12-22T07:07:04.924Z,4.07
2022-12-22T07:09:32.115Z,3.47
2022-12-22T07:11:58.667Z,4.95
2022-12-22T07:14:25.937Z,5.30
2022-12-22T07:16:52.874Z,5.18
2022-12-22T07:19:19.870Z,3.70
2022-12-22T07:21:48.659Z,4.32
2022-12-22T07:24:16.952Z,3.75
2022-12-22T07:26:43.513Z,4.00
2022-12-22T07:29:10.807Z,3.67
2022-12-22T07:31:37.435Z,4.28
2022-12-22T07:34:04.731Z,3.50
2022-12-22T07:36:31.282Z,3.67
2022-12-22T07:38:58.442Z,3.70
2022-12-22T07:41:43.446Z,4.57
2022-12-22T07:44:11.730Z,4.13
2022-12-22T07:46:39.606Z,4.95
2022-12-22T07:49:26.481Z,4.32
2022-12-22T07:51:56.654Z,3.80
2022-12-22T07:54:24.692Z,4.03
2022-12-22T07:56:51.619Z,3.47
2022-12-22T07:59:19.520Z,3.85
2022-12-22T08:01:46.279Z,4.00
2022-12-22T08:04:14.668Z,3.17
2022-12-22T08:06:41.437Z,3.45
2022-12-22T08:09:09.685Z,3.75
2022-12-22T08:11:36.612Z,3.45
2022-12-22T08:14:03.901Z,4.15
2022-12-22T08:16:30.591Z,4.30
2022-12-22T08:18:57.960Z,3.95
2022-12-22T08:21:24.696Z,3.30
2022-12-22T08:23:52.209Z,3.35
2022-12-22T08:26:26.404Z,4.25
2022-12-22T08:29:07.726Z,4.20
2022-12-22T08:31:35.007Z,4.22
2022-12-22T08:34:05.775Z,4.75
2022-12-22T08:36:36.651Z,4.32
2022-12-22T08:39:04.861Z,4.70
2022-12-22T08:41:50.825Z,3.80
2022-12-22T08:44:28.921Z,4.15
2022-12-22T08:46:57.581Z,4.43
2022-12-22T08:49:26.369Z,4.22
2022-12-22T08:51:53.801Z,5.13
2022-12-22T08:54:21.449Z,5.15
2022-12-22T08:56:48.220Z,4.45
2022-12-22T08:59:16.251Z,4.57
2022-12-22T09:01:46.821Z,6.25
2022-12-22T09:04:16.095Z,6.32
2022-12-22T09:06:42.878Z,6.35
2022-12-22T09:09:12.378Z,6.30
2022-12-22T09:11:40.385Z,5.93
2022-12-22T09:14:08.705Z,6.07
2022-12-22T09:16:36.301Z,6.25
2022-12-22T09:19:03.417Z,5.68
2022-12-22T09:21:31.092Z,5.50
2022-12-22T09:23:57.848Z,5.63
2022-12-22T09:26:27.406Z,6.75
2022-12-22T09:28:55.384Z,5.60
2022-12-22T09:31:24.508Z,6.18
2022-12-22T09:33:51.726Z,6.37
2022-12-22T09:36:23.546Z,6.88
2022-12-22T09:38:50.205Z,7.32
2022-12-22T09:41:35.282Z,6.72
2022-12-22T09:44:05.695Z,6.35
2022-12-22T09:46:35.177Z,6.43
2022-12-22T09:49:04.876Z,7.05
2022-12-22T09:51:34.740Z,6.88
2022-12-22T09:54:02.075Z,7.75
2022-12-22T09:56:30.549Z,8.40
2022-12-22T09:58:58.193Z,7.70
2022-12-22T10:01:37.533Z,9.18
2022-12-22T10:04:37.163Z,8.40
2022-12-22T10:07:13.065Z,7.70
2022-12-22T10:09:55.539Z,9.15
2022-12-22T10:12:25.412Z,9.88
2022-12-22T10:14:54.501Z,9.63
2022-12-22T10:17:32.366Z,9.57
2022-12-22T10:20:28.391Z,9.50
2022-12-22T10:23:06.695Z,10.88
2022-12-22T10:28:48.042Z,10.20
2022-12-22T10:31:24.830Z,10.88
2022-12-22T10:33:54.648Z,9.20
2022-12-22T10:36:25.431Z,10.32
2022-12-22T10:38:58.873Z,10.90
2022-12-22T10:41:28.707Z,10.35
2022-12-22T10:43:59.511Z,10.32
2022-12-22T10:46:47.854Z,10.18
2022-12-22T10:49:24.003Z,9.95
2022-12-22T10:52:27.675Z,9.10
2022-12-22T10:55:21.356Z,9.88
2022-12-22T10:57:48.872Z,9.50
2022-12-22T11:00:30.625Z,10.18
2022-12-22T11:03:01.943Z,9.75
2022-12-22T11:05:30.366Z,10.05
2022-12-22T11:07:57.684Z,12.20
2022-12-22T11:10:52.597Z,11.02
2022-12-22T11:13:37.617Z,12.25
2022-12-22T11:16:10.707Z,15.73
2022-12-22T11:19:04.200Z,12.60
2022-12-22T11:21:52.119Z,14.65
2022-12-22T11:24:39.031Z,14.48
2022-12-22T11:27:24.222Z,13.05
2022-12-22T11:30:11.365Z,12.55
2022-12-22T11:33:05.011Z,13.60
2022-12-22T11:36:10.058Z,14.05
2022-12-22T11:38:54.016Z,15.48
2022-12-22T11:41:56.595Z,15.85
2022-12-22T11:44:56.832Z,15.90
2022-12-22T11:47:43.426Z,15.13
2022-12-22T11:50:58.795Z,14.68
2022-12-22T11:53:40.983Z,14.48
2022-12-22T11:56:38.357Z,14.05
2022-12-22T11:59:14.285Z,14.60
2022-12-22T12:02:22.408Z,14.13
2022-12-22T12:05:11.250Z,15.40
2022-12-22T12:07:42.930Z,17.33
2022-12-22T12:10:25.462Z,19.35
2022-12-22T12:13:21.171Z,15.75
2022-12-22T12:16:18.797Z,15.63
2022-12-22T12:18:45.438Z,15.40
2022-12-22T12:21:23.510Z,15.82
2022-12-22T12:24:08.069Z,16.20
2022-12-22T12:26:44.946Z,14.70
2022-12-22T12:29:41.281Z,15.02
2022-12-22T12:32:15.208Z,14.85
2022-12-22T12:34:46.849Z,15.55
2022-12-22T12:37:27.076Z,15.02
2022-12-22T12:40:20.535Z,14.77
2022-12-22T12:42:48.044Z,16.10
2022-12-22T12:45:41.288Z,14.85
2022-12-22T12:48:20.312Z,14.35
2022-12-22T12:50:52.122Z,14.63
2022-12-22T12:53:20.687Z,14.00
2022-12-22T12:55:50.558Z,14.43
2022-12-22T12:58:35.653Z,16.73
2022-12-22T13:01:04.988Z,15.25
2022-12-22T13:04:01.870Z,14.75
2022-12-22T13:06:57.479Z,16.75
2022-12-22T13:09:49.955Z,16.45
2022-12-22T13:12:40.447Z,15.45
2022-12-22T13:15:37.379Z,13.80
2022-12-22T13:18:29.036Z,14.18
2022-12-22T13:21:26.066Z,13.85
2022-12-22T13:26:54.740Z,11.90
2022-12-22T13:29:40.378Z,11.90
2022-12-22T13:32:22.868Z,11.57
2022-12-22T13:37:47.336Z,11.63
2022-12-22T13:40:23.081Z,11.85
2022-12-22T13:42:50.300Z,10.85
2022-12-22T13:45:19.575Z,11.55
2022-12-22T13:47:48.576Z,11.20
2022-12-22T13:50:30.810Z,10.70
2022-12-22T13:52:58.604Z,9.82
2022-12-22T13:55:28.690Z,10.60
2022-12-22T13:57:59.037Z,11.73
2022-12-22T14:00:28.487Z,11.23
2022-12-22T14:02:55.910Z,12.30
2022-12-22T14:05:22.724Z,12.80
2022-12-22T14:08:06.111Z,12.40
2022-12-22T14:10:40.959Z,12.38
2022-12-22T14:13:16.025Z,11.73
2022-12-22T14:15:44.557Z,13.13
2022-12-22T14:18:17.283Z,11.67
2022-12-22T14:20:47.258Z,11.70
2022-12-22T14:23:29.740Z,11.88
2022-12-22T14:25:57.269Z,12.73
2022-12-22T14:28:31.818Z,11.20
2022-12-22T14:31:00.570Z,12.35
2022-12-22T14:33:33.357Z,12.38
2022-12-22T14:36:16.895Z,13.02
2022-12-22T14:38:50.472Z,15.43
2022-12-22T14:41:40.782Z,12.98
2022-12-22T14:44:16.788Z,11.80
2022-12-22T14:46:45.035Z,12.93
2022-12-22T14:49:18.570Z,11.63
2022-12-22T14:52:05.927Z,13.07
2022-12-22T14:54:33.356Z,13.80
2022-12-22T14:57:15.543Z,18.30
2022-12-22T15:00:02.627Z,16.15
2022-12-22T15:02:40.498Z,15.63
2022-12-22T15:05:09.919Z,17.50
2022-12-22T15:10:43.834Z,15.57
2022-12-22T15:13:22.493Z,13.52
2022-12-22T15:15:52.723Z,12.30
2022-12-22T15:18:26.815Z,11.05
2022-12-22T15:20:57.659Z,11.68
2022-12-22T15:23:25.164Z,11.77
2022-12-22T15:25:51.754Z,10.85
2022-12-22T15:28:18.925Z,12.07
2022-12-22T15:30:45.792Z,11.57
2022-12-22T15:33:18.771Z,10.70
2022-12-22T15:35:46.156Z,11.10
2022-12-22T15:38:16.283Z,12.18
2022-12-22T15:40:43.442Z,11.10
2022-12-22T15:43:22.694Z,11.43
2022-12-22T15:45:58.882Z,12.25
2022-12-22T15:48:30.985Z,12.48
2022-12-22T15:50:58.455Z,19.13
2022-12-22T15:53:25.425Z,17.77
2022-12-22T15:55:55.302Z,16.50
2022-12-22T15:58:26.300Z,15.32
2022-12-22T16:00:53.315Z,13.20
2022-12-22T16:03:20.691Z,14.48
2022-12-22T16:05:47.278Z,13.43
2022-12-22T16:08:18.480Z,14.20
2022-12-22T16:10:46.733Z,13.73
2022-12-22T16:13:15.852Z,15.93
2022-12-22T16:15:42.808Z,15.00
2022-12-22T16:18:13.165Z,16.23
2022-12-22T16:20:42.902Z,14.75
2022-12-22T16:23:22.438Z,17.08
2022-12-22T16:25:49.895Z,15.52
2022-12-22T16:28:24.856Z,16.27
2022-12-22T16:30:52.215Z,14.57
2022-12-22T16:33:20.449Z,17.58
2022-12-22T16:35:47.280Z,15.68
2022-12-22T16:38:18.667Z,15.55
2022-12-22T16:40:51.668Z,15.65
2022-12-22T16:46:15.965Z,15.88
2022-12-22T16:48:47.107Z,16.85
2022-12-22T16:51:26.304Z,17.52
2022-12-22T16:53:53.864Z,16.15
2022-12-22T16:56:26.774Z,16.67
2022-12-22T16:58:54.159Z,16.30
2022-12-22T17:01:38.308Z,16.35
2022-12-22T17:04:12.388Z,18.65
2022-12-22T17:06:40.112Z,16.95
2022-12-22T17:09:13.284Z,17.30
2022-12-22T17:11:40.017Z,18.65
2022-12-22T17:14:23.133Z,19.42
2022-12-22T17:16:50.876Z,18.95
2022-12-22T17:19:17.470Z,20.30
2022-12-22T17:21:44.986Z,19.67
2022-12-22T17:24:15.061Z,20.27
2022-12-22T17:26:42.714Z,20.17
2022-12-22T17:29:16.275Z,21.45
2022-12-22T17:31:43.706Z,20.63
2022-12-22T17:34:14.906Z,21.88
2022-12-22T17:36:43.125Z,21.35
2022-12-22T17:39:18.431Z,22.55
2022-12-22T17:41:49.032Z,25.60
2022-12-22T17:44:22.656Z,23.75
2022-12-22T17:46:50.239Z,22.02
2022-12-22T17:49:19.771Z,23.00
2022-12-22T17:51:47.450Z,25.15
2022-12-22T17:54:31.969Z,24.40
2022-12-22T17:57:03.926Z,23.02
2022-12-22T17:59:30.739Z,22.00
2022-12-22T18:01:58.160Z,21.95
2022-12-22T18:04:24.863Z,21.23
2022-12-22T18:06:52.094Z,20.95
2022-12-22T18:09:21.677Z,21.67
2022-12-22T18:11:49.684Z,22.55
2022-12-22T18:14:16.496Z,20.20
2022-12-22T18:16:44.267Z,21.77
2022-12-22T18:19:10.911Z,21.70
2022-12-22T18:21:38.220Z,21.05
2022-12-22T18:24:05.169Z,21.38
2022-12-22T18:26:32.630Z,19.95
2022-12-22T18:28:59.795Z,21.83
2022-12-22T18:31:26.816Z,20.63
2022-12-22T18:33:54.134Z,21.58
2022-12-22T18:36:30.807Z,21.35
2022-12-22T18:38:59.752Z,21.30
2022-12-22T18:41:29.238Z,20.42
2022-12-22T18:43:56.576Z,19.77
2022-12-22T18:46:23.792Z,21.15
2022-12-22T18:48:51.098Z,20.98
2022-12-22T18:51:24.617Z,23.05
2022-12-22T18:53:53.495Z,21.90
2022-12-22T18:56:22.001Z,21.25
2022-12-22T18:58:49.298Z,21.40
2022-12-22T19:01:26.704Z,20.75
2022-12-22T19:03:55.943Z,21.33
2022-12-22T19:06:23.819Z,19.95
2022-12-22T19:08:50.980Z,20.50
2022-12-22T19:11:23.905Z,22.02
2022-12-22T19:13:51.987Z,20.88
2022-12-22T19:16:25.211Z,20.85
2022-12-22T19:18:52.024Z,20.83
2022-12-22T19:21:19.450Z,20.05
2022-12-22T19:23:46.903Z,20.30
2022-12-22T19:26:26.744Z,18.38
2022-12-22T19:29:03.396Z,18.35
2022-12-22T19:31:33.745Z,18.23
2022-12-22T19:34:03.840Z,18.25
2022-12-22T19:36:32.240Z,19.15
2022-12-22T19:39:05.475Z,18.70
2022-12-22T19:41:46.277Z,19.88
2022-12-22T19:44:17.453Z,19.25
2022-12-22T19:46:45.163Z,18.77
2022-12-22T19:49:20.894Z,19.17
2022-12-22T19:51:48.685Z,20.55
2022-12-22T19:54:15.921Z,19.20
2022-12-22T19:56:46.232Z,19.17
2022-12-22T19:59:25.991Z,17.63
2022-12-22T20:01:56.423Z,17.63
2022-12-22T20:04:23.131Z,18.05
2022-12-22T20:06:50.317Z,17.60
2022-12-22T20:09:16.914Z,18.58
2022-12-22T20:11:44.768Z,18.27
2022-12-22T20:14:19.138Z,17.95
2022-12-22T20:16:45.860Z,17.42
2022-12-22T20:19:14.494Z,17.95
2022-12-22T20:21:44.156Z,17.40
2022-12-22T20:24:21.343Z,18.30
2022-12-22T20:26:53.859Z,15.15
2022-12-22T20:29:21.453Z,16.70
2022-12-22T20:31:48.783Z,15.45
2022-12-22T20:34:15.394Z,15.70
2022-12-22T20:36:43.365Z,15.40
2022-12-22T20:39:16.481Z,15.60
2022-12-22T20:41:47.025Z,15.75
2022-12-22T20:44:17.837Z,15.38
2022-12-22T20:46:44.396Z,17.90
2022-12-22T20:49:15.362Z,18.35
2022-12-22T20:51:43.147Z,20.85
2022-12-22T20:54:15.161Z,32.13
2022-12-22T20:56:43.817Z,22.77
2022-12-22T20:59:22.483Z,21.65
2022-12-22T21:01:50.830Z,24.25
2022-12-22T21:04:18.832Z,19.50
2022-12-22T21:06:49.754Z,15.48
2022-12-22T21:09:17.775Z,14.38
2022-12-22T21:11:44.999Z,13.82
2022-12-22T21:14:12.724Z,13.15
2022-12-22T21:16:40.427Z,13.15
2022-12-22T21:19:08.087Z,15.43
2022-12-22T21:21:34.741Z,14.90
2022-12-22T21:24:01.982Z,14.82
2022-12-22T21:26:35.496Z,13.32
2022-12-22T21:29:09.623Z,13.35
